sensor_id;sensor_type;location;lat;lon;timestamp;pressure;altitude;pressure_sealevel;temperature;humidity
9905;BME280;4991;43.566;27.820;2023-01-31T00:01:22;98281.44;;;-2.28;100.00
9905;BME280;4991;43.566;27.820;2023-01-31T00:03:52;98282.34;;;-2.22;100.00
9905;BME280;4991;43.566;27.820;2023-01-31T00:06:22;98282.25;;;-2.27;100.00
9905;BME280;4991;43.566;27.820;2023-01-31T00:08:49;98279.59;;;-2.27;100.00
9905;BME280;4991;43.566;27.820;2023-01-31T00:11:17;98267.28;;;-2.28;100.00
9905;BME280;4991;43.566;27.820;2023-01-31T00:13:44;98270.88;;;-2.23;100.00
9905;BME280;4991;43.566;27.820;2023-01-31T00:16:11;98265.53;;;-2.23;100.00
9905;BME280;4991;43.566;27.820;2023-01-31T00:18:37;98264.00;;;-2.19;100.00
9905;BME280;4991;43.566;27.820;2023-01-31T00:21:11;98266.59;;;-2.24;100.00
9905;BME280;4991;43.566;27.820;2023-01-31T00:23:39;98261.47;;;-2.25;100.00
9905;BME280;4991;43.566;27.820;2023-01-31T00:26:14;98267.03;;;-2.27;100.00
9905;BME280;4991;43.566;27.820;2023-01-31T00:28:41;98262.75;;;-2.16;100.00
9905;BME280;4991;43.566;27.820;2023-01-31T00:31:07;98264.81;;;-2.18;100.00
9905;BME280;4991;43.566;27.820;2023-01-31T00:33:34;98264.22;;;-2.09;100.00
9905;BME280;4991;43.566;27.820;2023-01-31T00:36:09;98258.00;;;-2.14;100.00
9905;BME280;4991;43.566;27.820;2023-01-31T00:38:35;98253.53;;;-2.09;100.00
9905;BME280;4991;43.566;27.820;2023-01-31T00:41:02;98261.56;;;-2.09;100.00
9905;BME280;4991;43.566;27.820;2023-01-31T00:43:29;98255.19;;;-2.08;100.00
9905;BME280;4991;43.566;27.820;2023-01-31T00:45:55;98252.53;;;-2.08;100.00
9905;BME280;4991;43.566;27.820;2023-01-31T00:48:21;98249.28;;;-2.10;100.00
9905;BME280;4991;43.566;27.820;2023-01-31T00:50:47;98254.63;;;-2.21;100.00
9905;BME280;4991;43.566;27.820;2023-01-31T00:53:12;98249.41;;;-2.16;100.00
9905;BME280;4991;43.566;27.820;2023-01-31T00:55:38;98236.56;;;-2.19;100.00
9905;BME280;4991;43.566;27.820;2023-01-31T00:58:04;98237.81;;;-2.22;100.00
9905;BME280;4991;43.566;27.820;2023-01-31T01:00:30;98236.31;;;-2.18;100.00
9905;BME280;4991;43.566;27.820;2023-01-31T01:02:56;98235.97;;;-2.21;100.00
9905;BME280;4991;43.566;27.820;2023-01-31T01:05:23;98232.00;;;-2.19;100.00
9905;BME280;4991;43.566;27.820;2023-01-31T01:07:49;98232.81;;;-2.18;100.00
9905;BME280;4991;43.566;27.820;2023-01-31T01:10:15;98235.16;;;-2.22;100.00
9905;BME280;4991;43.566;27.820;2023-01-31T01:12:40;98236.31;;;-2.18;100.00
9905;BME280;4991;43.566;27.820;2023-01-31T01:15:06;98225.59;;;-2.06;100.00
9905;BME280;4991;43.566;27.820;2023-01-31T01:17:32;98221.44;;;-2.14;100.00
9905;BME280;4991;43.566;27.820;2023-01-31T01:19:57;98238.50;;;-2.15;100.00
9905;BME280;4991;43.566;27.820;2023-01-31T01:22:28;98233.28;;;-2.10;100.00
9905;BME280;4991;43.566;27.820;2023-01-31T01:24:54;98227.25;;;-2.17;100.00
9905;BME280;4991;43.566;27.820;2023-01-31T01:27:20;98229.91;;;-2.17;100.00
9905;BME280;4991;43.566;27.820;2023-01-31T01:29:45;98222.03;;;-2.12;100.00
9905;BME280;4991;43.566;27.820;2023-01-31T01:32:11;98222.03;;;-2.12;100.00
9905;BME280;4991;43.566;27.820;2023-01-31T01:34:37;98213.00;;;-2.11;100.00
9905;BME280;4991;43.566;27.820;2023-01-31T01:37:03;98212.78;;;-2.21;100.00
9905;BME280;4991;43.566;27.820;2023-01-31T01:39:37;98203.25;;;-2.17;100.00
9905;BME280;4991;43.566;27.820;2023-01-31T01:42:03;98194.66;;;-2.07;100.00
9905;BME280;4991;43.566;27.820;2023-01-31T01:44:54;98188.50;;;-2.08;100.00
9905;BME280;4991;43.566;27.820;2023-01-31T01:50:12;98189.44;;;-2.14;100.00
9905;BME280;4991;43.566;27.820;2023-01-31T01:52:48;98199.66;;;-2.11;100.00
9905;BME280;4991;43.566;27.820;2023-01-31T01:55:22;98195.09;;;-2.10;100.00
9905;BME280;4991;43.566;27.820;2023-01-31T01:57:54;98182.72;;;-2.16;100.00
9905;BME280;4991;43.566;27.820;2023-01-31T02:00:27;98192.69;;;-2.12;100.00
9905;BME280;4991;43.566;27.820;2023-01-31T02:02:56;98191.00;;;-2.29;100.00
9905;BME280;4991;43.566;27.820;2023-01-31T02:05:42;98196.69;;;-2.26;100.00
9905;BME280;4991;43.566;27.820;2023-01-31T02:08:10;98196.31;;;-2.18;100.00
9905;BME280;4991;43.566;27.820;2023-01-31T02:10:53;98189.91;;;-2.17;100.00
9905;BME280;4991;43.566;27.820;2023-01-31T02:13:20;98205.34;;;-2.19;100.00
9905;BME280;4991;43.566;27.820;2023-01-31T02:15:47;98187.81;;;-2.15;100.00
9905;BME280;4991;43.566;27.820;2023-01-31T02:18:13;98197.13;;;-2.17;100.00
9905;BME280;4991;43.566;27.820;2023-01-31T02:23:43;98195.22;;;-2.05;100.00
9905;BME280;4991;43.566;27.820;2023-01-31T02:29:22;98197.88;;;-2.05;100.00
9905;BME280;4991;43.566;27.820;2023-01-31T02:32:26;98195.88;;;-1.98;100.00
9905;BME280;4991;43.566;27.820;2023-01-31T02:38:06;98198.50;;;-1.87;100.00
9905;BME280;4991;43.566;27.820;2023-01-31T02:43:19;98205.09;;;-1.78;100.00
9905;BME280;4991;43.566;27.820;2023-01-31T02:50:53;98202.28;;;-1.55;100.00
9905;BME280;4991;43.566;27.820;2023-01-31T02:53:31;98211.50;;;-1.46;100.00
9905;BME280;4991;43.566;27.820;2023-01-31T02:56:11;98201.06;;;-1.47;100.00
9905;BME280;4991;43.566;27.820;2023-01-31T02:58:41;98198.66;;;-1.49;100.00
9905;BME280;4991;43.566;27.820;2023-01-31T03:01:12;98191.06;;;-1.40;100.00
9905;BME280;4991;43.566;27.820;2023-01-31T03:03:40;98187.22;;;-1.44;100.00
9905;BME280;4991;43.566;27.820;2023-01-31T03:11:51;98183.38;;;-1.20;100.00
9905;BME280;4991;43.566;27.820;2023-01-31T03:14:30;98182.13;;;-1.12;100.00
9905;BME280;4991;43.566;27.820;2023-01-31T03:17:05;98177.94;;;-1.08;100.00
9905;BME280;4991;43.566;27.820;2023-01-31T03:22:43;98185.38;;;-0.94;100.00
9905;BME280;4991;43.566;27.820;2023-01-31T03:25:13;98171.03;;;-1.04;100.00
9905;BME280;4991;43.566;27.820;2023-01-31T03:27:41;98184.25;;;-0.98;100.00
9905;BME280;4991;43.566;27.820;2023-01-31T03:30:12;98170.25;;;-1.05;100.00
9905;BME280;4991;43.566;27.820;2023-01-31T03:32:44;98161.41;;;-1.05;100.00
9905;BME280;4991;43.566;27.820;2023-01-31T03:35:13;98171.03;;;-1.04;100.00
9905;BME280;4991;43.566;27.820;2023-01-31T03:40:51;98185.22;;;-1.04;100.00
9905;BME280;4991;43.566;27.820;2023-01-31T03:43:36;98188.22;;;-1.00;100.00
9905;BME280;4991;43.566;27.820;2023-01-31T03:46:12;98180.09;;;-0.89;100.00
9905;BME280;4991;43.566;27.820;2023-01-31T03:48:43;98181.94;;;-0.89;100.00
9905;BME280;4991;43.566;27.820;2023-01-31T03:51:17;98182.03;;;-0.84;100.00
9905;BME280;4991;43.566;27.820;2023-01-31T03:53:51;98184.06;;;-0.91;100.00
9905;BME280;4991;43.566;27.820;2023-01-31T03:58:53;98185.44;;;-0.89;100.00
9905;BME280;4991;43.566;27.820;2023-01-31T04:01:23;98192.25;;;-0.81;100.00
9905;BME280;4991;43.566;27.820;2023-01-31T04:03:57;98181.22;;;-0.85;100.00
9905;BME280;4991;43.566;27.820;2023-01-31T04:06:26;98186.81;;;-0.86;100.00
9905;BME280;4991;43.566;27.820;2023-01-31T04:08:52;98186.59;;;-1.01;100.00
9905;BME280;4991;43.566;27.820;2023-01-31T04:11:19;98186.34;;;-1.00;100.00
9905;BME280;4991;43.566;27.820;2023-01-31T04:13:46;98195.00;;;-0.93;100.00
9905;BME280;4991;43.566;27.820;2023-01-31T04:16:12;98195.94;;;-0.82;100.00
9905;BME280;4991;43.566;27.820;2023-01-31T04:18:37;98188.06;;;-0.72;100.00
9905;BME280;4991;43.566;27.820;2023-01-31T04:21:03;98198.78;;;-0.72;100.00
9905;BME280;4991;43.566;27.820;2023-01-31T04:23:29;98196.94;;;-0.88;100.00
9905;BME280;4991;43.566;27.820;2023-01-31T04:25:54;98202.28;;;-0.88;100.00
9905;BME280;4991;43.566;27.820;2023-01-31T04:28:21;98198.78;;;-0.89;100.00
9905;BME280;4991;43.566;27.820;2023-01-31T04:30:51;98196.63;;;-0.92;100.00
9905;BME280;4991;43.566;27.820;2023-01-31T04:33:17;98198.16;;;-0.96;100.00
9905;BME280;4991;43.566;27.820;2023-01-31T04:35:43;98205.31;;;-1.01;100.00
9905;BME280;4991;43.566;27.820;2023-01-31T04:38:08;98209.00;;;-1.02;100.00
9905;BME280;4991;43.566;27.820;2023-01-31T04:40:34;98203.91;;;-1.04;100.00
9905;BME280;4991;43.566;27.820;2023-01-31T04:42:59;98202.72;;;-0.96;100.00
9905;BME280;4991;43.566;27.820;2023-01-31T04:45:25;98207.00;;;-0.95;100.00
9905;BME280;4991;43.566;27.820;2023-01-31T04:47:51;98209.25;;;-1.04;100.00
9905;BME280;4991;43.566;27.820;2023-01-31T04:50:16;98205.31;;;-1.01;100.00
9905;BME280;4991;43.566;27.820;2023-01-31T04:52:42;98209.44;;;-1.10;100.00
9905;BME280;4991;43.566;27.820;2023-01-31T04:55:08;98212.66;;;-1.08;100.00
9905;BME280;4991;43.566;27.820;2023-01-31T04:57:33;98223.44;;;-1.03;100.00
9905;BME280;4991;43.566;27.820;2023-01-31T04:59:59;98225.53;;;-1.05;100.00
9905;BME280;4991;43.566;27.820;2023-01-31T05:02:25;98226.28;;;-1.10;100.00
9905;BME280;4991;43.566;27.820;2023-01-31T05:04:50;98229.44;;;-1.13;100.00
9905;BME280;4991;43.566;27.820;2023-01-31T05:07:16;98225.22;;;-1.09;100.00
9905;BME280;4991;43.566;27.820;2023-01-31T05:09:41;98225.13;;;-1.14;100.00
9905;BME280;4991;43.566;27.820;2023-01-31T05:12:08;98220.69;;;-1.08;100.00
9905;BME280;4991;43.566;27.820;2023-01-31T05:14:34;98227.78;;;-1.14;100.00
9905;BME280;4991;43.566;27.820;2023-01-31T05:16:59;98228.53;;;-1.18;100.00
9905;BME280;4991;43.566;27.820;2023-01-31T05:19:25;98231.78;;;-1.16;100.00
9905;BME280;4991;43.566;27.820;2023-01-31T05:21:50;98238.63;;;-1.20;100.00
9905;BME280;4991;43.566;27.820;2023-01-31T05:24:22;98247.16;;;-1.23;100.00
9905;BME280;4991;43.566;27.820;2023-01-31T05:26:47;98249.66;;;-1.17;100.00
9905;BME280;4991;43.566;27.820;2023-01-31T05:29:15;98250.00;;;-1.13;100.00
9905;BME280;4991;43.566;27.820;2023-01-31T05:31:40;98250.06;;;-1.08;100.00
9905;BME280;4991;43.566;27.820;2023-01-31T05:34:06;98253.78;;;-1.09;100.00
9905;BME280;4991;43.566;27.820;2023-01-31T05:36:32;98267.28;;;-1.16;100.00
9905;BME280;4991;43.566;27.820;2023-01-31T05:38:58;98256.16;;;-1.13;100.00
9905;BME280;4991;43.566;27.820;2023-01-31T05:41:24;98260.59;;;-1.02;100.00
9905;BME280;4991;43.566;27.820;2023-01-31T05:43:49;98265.78;;;-0.95;100.00
9905;BME280;4991;43.566;27.820;2023-01-31T05:46:15;98268.38;;;-1.00;100.00
9905;BME280;4991;43.566;27.820;2023-01-31T05:48:40;98266.44;;;-0.88;100.00
9905;BME280;4991;43.566;27.820;2023-01-31T05:51:06;98272.28;;;-0.91;100.00
9905;BME280;4991;43.566;27.820;2023-01-31T05:53:31;98267.47;;;-0.89;100.00
9905;BME280;4991;43.566;27.820;2023-01-31T05:55:57;98265.53;;;-0.94;100.00
9905;BME280;4991;43.566;27.820;2023-01-31T05:58:23;98265.28;;;-0.92;100.00
9905;BME280;4991;43.566;27.820;2023-01-31T06:00:48;98278.47;;;-1.02;100.00
9905;BME280;4991;43.566;27.820;2023-01-31T06:03:14;98276.06;;;-1.04;100.00
9905;BME280;4991;43.566;27.820;2023-01-31T06:05:39;98274.19;;;-1.03;100.00
9905;BME280;4991;43.566;27.820;2023-01-31T06:08:05;98286.97;;;-1.05;100.00
9905;BME280;4991;43.566;27.820;2023-01-31T06:10:31;98275.72;;;-1.07;100.00
9905;BME280;4991;43.566;27.820;2023-01-31T06:12:57;98286.97;;;-1.05;100.00
9905;BME280;4991;43.566;27.820;2023-01-31T06:15:22;98284.72;;;-0.97;100.00
9905;BME280;4991;43.566;27.820;2023-01-31T06:17:48;98279.72;;;-0.93;100.00
9905;BME280;4991;43.566;27.820;2023-01-31T06:20:14;98281.88;;;-0.90;100.00
9905;BME280;4991;43.566;27.820;2023-01-31T06:22:40;98278.16;;;-0.89;100.00
9905;BME280;4991;43.566;27.820;2023-01-31T06:25:06;98280.59;;;-0.88;100.00
9905;BME280;4991;43.566;27.820;2023-01-31T06:27:32;98294.09;;;-0.94;100.00
9905;BME280;4991;43.566;27.820;2023-01-31T06:29:58;98298.09;;;-0.97;100.00
9905;BME280;4991;43.566;27.820;2023-01-31T06:32:24;98300.94;;;-0.87;100.00
9905;BME280;4991;43.566;27.820;2023-01-31T06:34:50;98295.09;;;-0.84;100.00
9905;BME280;4991;43.566;27.820;2023-01-31T06:37:15;98307.78;;;-0.91;100.00
9905;BME280;4991;43.566;27.820;2023-01-31T06:39:41;98305.78;;;-0.84;100.00
9905;BME280;4991;43.566;27.820;2023-01-31T06:42:06;98303.34;;;-0.69;100.00
9905;BME280;4991;43.566;27.820;2023-01-31T06:44:32;98304.00;;;-0.62;100.00
9905;BME280;4991;43.566;27.820;2023-01-31T06:46:59;98300.75;;;-0.64;100.00
9905;BME280;4991;43.566;27.820;2023-01-31T06:49:25;98307.97;;;-0.64;100.00
9905;BME280;4991;43.566;27.820;2023-01-31T06:51:50;98303.69;;;-0.65;100.00
9905;BME280;4991;43.566;27.820;2023-01-31T06:54:16;98304.34;;;-0.58;100.00
9905;BME280;4991;43.566;27.820;2023-01-31T06:56:41;98318.00;;;-0.71;100.00
9905;BME280;4991;43.566;27.820;2023-01-31T06:59:07;98324.41;;;-0.56;100.00
9905;BME280;4991;43.566;27.820;2023-01-31T07:01:33;98324.06;;;-0.43;100.00
9905;BME280;4991;43.566;27.820;2023-01-31T07:03:58;98335.66;;;-0.37;100.00
9905;BME280;4991;43.566;27.820;2023-01-31T07:06:24;98337.09;;;-0.30;100.00
9905;BME280;4991;43.566;27.820;2023-01-31T07:08:50;98341.16;;;-0.27;100.00
9905;BME280;4991;43.566;27.820;2023-01-31T07:11:15;98349.09;;;-0.16;100.00
9905;BME280;4991;43.566;27.820;2023-01-31T07:13:41;98351.38;;;-0.24;100.00
9905;BME280;4991;43.566;27.820;2023-01-31T07:16:07;98357.97;;;-0.32;100.00
9905;BME280;4991;43.566;27.820;2023-01-31T07:18:32;98350.09;;;-0.22;100.00
9905;BME280;4991;43.566;27.820;2023-01-31T07:20:58;98357.88;;;-0.20;100.00
9905;BME280;4991;43.566;27.820;2023-01-31T07:23:23;98358.81;;;-0.26;100.00
9905;BME280;4991;43.566;27.820;2023-01-31T07:25:49;98354.53;;;-0.27;100.00
9905;BME280;4991;43.566;27.820;2023-01-31T07:28:15;98349.13;;;-0.32;100.00
9905;BME280;4991;43.566;27.820;2023-01-31T07:30:40;98349.44;;;-0.29;100.00
9905;BME280;4991;43.566;27.820;2023-01-31T07:33:09;98347.88;;;-0.25;100.00
9905;BME280;4991;43.566;27.820;2023-01-31T07:35:35;98352.13;;;-0.29;100.00
9905;BME280;4991;43.566;27.820;2023-01-31T07:38:00;98355.28;;;-0.32;100.00
9905;BME280;4991;43.566;27.820;2023-01-31T07:40:26;98341.41;;;-0.29;100.00
9905;BME280;4991;43.566;27.820;2023-01-31T07:42:57;98334.19;;;-0.28;100.00
9905;BME280;4991;43.566;27.820;2023-01-31T07:45:23;98337.75;;;-0.23;100.00
9905;BME280;4991;43.566;27.820;2023-01-31T07:47:49;98341.50;;;-0.24;100.00
9905;BME280;4991;43.566;27.820;2023-01-31T07:50:15;98340.75;;;-0.19;100.00
9905;BME280;4991;43.566;27.820;2023-01-31T07:52:40;98332.41;;;-0.23;100.00
9905;BME280;4991;43.566;27.820;2023-01-31T07:55:06;98328.44;;;-0.20;100.00
9905;BME280;4991;43.566;27.820;2023-01-31T07:57:32;98330.28;;;-0.21;100.00
9905;BME280;4991;43.566;27.820;2023-01-31T07:59:57;98332.44;;;-0.01;100.00
9905;BME280;4991;43.566;27.820;2023-01-31T08:02:23;98344.38;;;-0.09;100.00
9905;BME280;4991;43.566;27.820;2023-01-31T08:05:08;98343.50;;;-0.14;100.00
9905;BME280;4991;43.566;27.820;2023-01-31T08:07:34;98350.28;;;-0.07;100.00
9905;BME280;4991;43.566;27.820;2023-01-31T08:10:00;98355.41;;;-0.05;100.00
9905;BME280;4991;43.566;27.820;2023-01-31T08:12:26;98365.22;;;-0.11;100.00
9905;BME280;4991;43.566;27.820;2023-01-31T08:14:51;98375.34;;;-0.13;100.00
9905;BME280;4991;43.566;27.820;2023-01-31T08:17:17;98380.06;;;-0.20;100.00
9905;BME280;4991;43.566;27.820;2023-01-31T08:19:42;98384.53;;;-0.09;100.00
9905;BME280;4991;43.566;27.820;2023-01-31T08:22:08;98375.59;;;-0.14;100.00
9905;BME280;4991;43.566;27.820;2023-01-31T08:24:34;98390.22;;;-0.22;100.00
9905;BME280;4991;43.566;27.820;2023-01-31T08:27:00;98391.25;;;-0.23;100.00
9905;BME280;4991;43.566;27.820;2023-01-31T08:29:25;98397.41;;;-0.06;100.00
9905;BME280;4991;43.566;27.820;2023-01-31T08:31:51;98393.25;;;0.03;100.00
9905;BME280;4991;43.566;27.820;2023-01-31T08:34:18;98391.88;;;0.01;100.00
9905;BME280;4991;43.566;27.820;2023-01-31T08:36:43;98388.66;;;0.21;100.00
9905;BME280;4991;43.566;27.820;2023-01-31T08:39:09;98393.13;;;0.15;100.00
9905;BME280;4991;43.566;27.820;2023-01-31T08:41:35;98408.31;;;0.26;100.00
9905;BME280;4991;43.566;27.820;2023-01-31T08:44:02;98398.78;;;0.35;100.00
9905;BME280;4991;43.566;27.820;2023-01-31T08:46:34;98399.09;;;0.39;100.00
9905;BME280;4991;43.566;27.820;2023-01-31T08:49:02;98397.09;;;0.51;100.00
9905;BME280;4991;43.566;27.820;2023-01-31T08:51:28;98393.03;;;0.48;100.00
9905;BME280;4991;43.566;27.820;2023-01-31T08:53:54;98390.94;;;0.50;100.00
9905;BME280;4991;43.566;27.820;2023-01-31T08:56:21;98402.72;;;0.71;100.00
9905;BME280;4991;43.566;27.820;2023-01-31T08:58:50;98401.47;;;0.57;100.00
9905;BME280;4991;43.566;27.820;2023-01-31T09:01:18;98395.91;;;0.63;100.00
9905;BME280;4991;43.566;27.820;2023-01-31T09:03:45;98392.19;;;0.86;100.00
9905;BME280;4991;43.566;27.820;2023-01-31T09:06:17;98394.47;;;0.99;100.00
9905;BME280;4991;43.566;27.820;2023-01-31T09:08:43;98389.31;;;1.19;100.00
9905;BME280;4991;43.566;27.820;2023-01-31T09:11:10;98388.53;;;0.97;100.00
9905;BME280;4991;43.566;27.820;2023-01-31T09:13:35;98388.03;;;1.00;100.00
9905;BME280;4991;43.566;27.820;2023-01-31T09:16:04;98396.06;;;1.26;100.00
9905;BME280;4991;43.566;27.820;2023-01-31T09:18:32;98384.34;;;1.33;100.00
9905;BME280;4991;43.566;27.820;2023-01-31T09:21:12;98391.16;;;1.45;100.00
9905;BME280;4991;43.566;27.820;2023-01-31T09:23:38;98383.22;;;1.60;100.00
9905;BME280;4991;43.566;27.820;2023-01-31T09:26:05;98375.81;;;1.72;100.00
9905;BME280;4991;43.566;27.820;2023-01-31T09:28:31;98377.25;;;1.85;100.00
9905;BME280;4991;43.566;27.820;2023-01-31T09:31:09;98378.16;;;1.64;100.00
9905;BME280;4991;43.566;27.820;2023-01-31T09:33:35;98376.25;;;1.59;100.00
9905;BME280;4991;43.566;27.820;2023-01-31T09:36:08;98373.09;;;1.36;100.00
9905;BME280;4991;43.566;27.820;2023-01-31T09:38:35;98374.09;;;1.29;100.00
9905;BME280;4991;43.566;27.820;2023-01-31T09:41:03;98376.81;;;1.34;100.00
9905;BME280;4991;43.566;27.820;2023-01-31T09:43:35;98373.63;;;1.33;100.00
9905;BME280;4991;43.566;27.820;2023-01-31T09:46:05;98382.72;;;1.31;100.00
9905;BME280;4991;43.566;27.820;2023-01-31T09:48:37;98381.00;;;1.20;100.00
9905;BME280;4991;43.566;27.820;2023-01-31T09:51:08;98385.75;;;1.13;100.00
9905;BME280;4991;43.566;27.820;2023-01-31T09:53:36;98376.94;;;1.18;100.00
9905;BME280;4991;43.566;27.820;2023-01-31T10:01:35;98376.19;;;1.22;100.00
9905;BME280;4991;43.566;27.820;2023-01-31T10:07:37;98388.69;;;1.12;100.00
9905;BME280;4991;43.566;27.820;2023-01-31T10:10:21;98388.38;;;1.08;100.00
9905;BME280;4991;43.566;27.820;2023-01-31T10:12:54;98384.19;;;0.91;100.00
9905;BME280;4991;43.566;27.820;2023-01-31T10:15:36;98383.88;;;0.87;100.00
9905;BME280;4991;43.566;27.820;2023-01-31T10:18:40;98374.34;;;0.75;100.00
9905;BME280;4991;43.566;27.820;2023-01-31T10:21:14;98383.69;;;0.72;100.00
9905;BME280;4991;43.566;27.820;2023-01-31T10:23:48;98383.19;;;0.75;100.00
9905;BME280;4991;43.566;27.820;2023-01-31T10:26:27;98387.41;;;0.66;100.00
9905;BME280;4991;43.566;27.820;2023-01-31T10:31:44;98376.97;;;0.48;100.00
9905;BME280;4991;43.566;27.820;2023-01-31T10:37:01;98386.75;;;0.38;100.00
9905;BME280;4991;43.566;27.820;2023-01-31T10:44:41;98377.53;;;0.50;100.00
9905;BME280;4991;43.566;27.820;2023-01-31T10:47:14;98381.34;;;0.54;100.00
9905;BME280;4991;43.566;27.820;2023-01-31T10:49:45;98376.91;;;0.65;100.00
9905;BME280;4991;43.566;27.820;2023-01-31T10:52:21;98384.66;;;0.61;100.00
9905;BME280;4991;43.566;27.820;2023-01-31T10:55:14;98385.44;;;0.62;100.00
9905;BME280;4991;43.566;27.820;2023-01-31T10:57:45;98381.91;;;0.56;100.00
9905;BME280;4991;43.566;27.820;2023-01-31T11:00:19;98374.84;;;0.50;100.00
9905;BME280;4991;43.566;27.820;2023-01-31T11:02:46;98377.97;;;0.42;100.00
9905;BME280;4991;43.566;27.820;2023-01-31T11:05:18;98378.34;;;0.51;100.00
9905;BME280;4991;43.566;27.820;2023-01-31T11:07:46;98375.44;;;0.52;100.00
9905;BME280;4991;43.566;27.820;2023-01-31T11:10:29;98376.84;;;0.60;100.00
9905;BME280;4991;43.566;27.820;2023-01-31T11:13:01;98382.03;;;0.66;100.00
9905;BME280;4991;43.566;27.820;2023-01-31T11:15:39;98381.28;;;0.71;100.00
9905;BME280;4991;43.566;27.820;2023-01-31T11:18:14;98378.47;;;0.82;100.00
9905;BME280;4991;43.566;27.820;2023-01-31T11:20:46;98369.59;;;0.82;100.00
9905;BME280;4991;43.566;27.820;2023-01-31T11:23:14;98382.03;;;0.88;100.00
9905;BME280;4991;43.566;27.820;2023-01-31T11:25:46;98370.09;;;0.79;100.00
9905;BME280;4991;43.566;27.820;2023-01-31T11:28:28;98375.22;;;0.80;100.00
9905;BME280;4991;43.566;27.820;2023-01-31T11:30:58;98372.78;;;0.79;100.00
9905;BME280;4991;43.566;27.820;2023-01-31T11:36:07;98361.25;;;0.78;100.00
9905;BME280;4991;43.566;27.820;2023-01-31T11:38:33;98368.88;;;0.91;100.00
9905;BME280;4991;43.566;27.820;2023-01-31T11:40:59;98370.16;;;0.84;100.00
9905;BME280;4991;43.566;27.820;2023-01-31T11:43:25;98368.34;;;0.89;100.00
9905;BME280;4991;43.566;27.820;2023-01-31T11:45:59;98365.59;;;1.06;100.00
9905;BME280;4991;43.566;27.820;2023-01-31T11:48:35;98369.72;;;1.18;100.00
9905;BME280;4991;43.566;27.820;2023-01-31T11:51:02;98373.88;;;1.04;100.00
9905;BME280;4991;43.566;27.820;2023-01-31T11:53:42;98364.31;;;1.13;100.00
9905;BME280;4991;43.566;27.820;2023-01-31T11:56:27;98362.19;;;1.15;100.00
9905;BME280;4991;43.566;27.820;2023-01-31T11:58:57;98368.41;;;1.21;100.00
9905;BME280;4991;43.566;27.820;2023-01-31T12:01:28;98371.41;;;1.29;100.00
9905;BME280;4991;43.566;27.820;2023-01-31T12:04:02;98372.97;;;1.20;100.00
9905;BME280;4991;43.566;27.820;2023-01-31T12:06:32;98366.38;;;1.06;100.00
9905;BME280;4991;43.566;27.820;2023-01-31T12:08:59;98370.78;;;0.91;100.00
9905;BME280;4991;43.566;27.820;2023-01-31T12:11:33;98367.91;;;0.97;100.00
9905;BME280;4991;43.566;27.820;2023-01-31T12:16:28;98374.50;;;0.90;100.00
9905;BME280;4991;43.566;27.820;2023-01-31T12:21:51;98377.03;;;1.01;100.00
9905;BME280;4991;43.566;27.820;2023-01-31T12:26:59;98388.03;;;1.00;100.00
9905;BME280;4991;43.566;27.820;2023-01-31T13:02:39;98397.69;;;1.01;100.00
9905;BME280;4991;43.566;27.820;2023-01-31T13:05:27;98400.44;;;1.06;100.00
9905;BME280;4991;43.566;27.820;2023-01-31T13:08:01;98401.47;;;1.05;100.00
9905;BME280;4991;43.566;27.820;2023-01-31T13:13:28;98404.06;;;0.95;100.00
9905;BME280;4991;43.566;27.820;2023-01-31T13:16:18;98406.47;;;0.96;100.00
9905;BME280;4991;43.566;27.820;2023-01-31T13:18:47;98405.88;;;0.89;100.00
9905;BME280;4991;43.566;27.820;2023-01-31T13:21:16;98416.28;;;0.86;100.00
9905;BME280;4991;43.566;27.820;2023-01-31T13:26:39;98417.72;;;0.93;100.00
9905;BME280;4991;43.566;27.820;2023-01-31T13:29:18;98423.13;;;0.98;100.00
9905;BME280;4991;43.566;27.820;2023-01-31T13:34:21;98424.13;;;0.92;100.00
9905;BME280;4991;43.566;27.820;2023-01-31T13:36:56;98426.06;;;0.97;100.00
9905;BME280;4991;43.566;27.820;2023-01-31T13:39:30;98427.59;;;0.93;100.00
9905;BME280;4991;43.566;27.820;2023-01-31T13:41:59;98427.38;;;0.94;100.00
9905;BME280;4991;43.566;27.820;2023-01-31T13:44:25;98430.47;;;0.86;100.00
9905;BME280;4991;43.566;27.820;2023-01-31T13:47:01;98427.22;;;0.79;100.00
9905;BME280;4991;43.566;27.820;2023-01-31T13:52:04;98434.56;;;0.67;100.00
9905;BME280;4991;43.566;27.820;2023-01-31T13:54:44;98441.78;;;0.67;100.00
9905;BME280;4991;43.566;27.820;2023-01-31T13:57:29;98446.88;;;0.68;100.00
9905;BME280;4991;43.566;27.820;2023-01-31T14:00:09;98443.03;;;0.59;100.00
9905;BME280;4991;43.566;27.820;2023-01-31T14:03:13;98447.56;;;0.59;100.00
9905;BME280;4991;43.566;27.820;2023-01-31T14:10:56;98457.66;;;0.52;100.00
9905;BME280;4991;43.566;27.820;2023-01-31T14:13:39;98456.28;;;0.49;100.00
9905;BME280;4991;43.566;27.820;2023-01-31T14:16:45;98456.72;;;0.41;100.00
9905;BME280;4991;43.566;27.820;2023-01-31T14:27:16;98471.81;;;0.31;100.00
9905;BME280;4991;43.566;27.820;2023-01-31T14:29:44;98466.72;;;0.29;100.00
9905;BME280;4991;43.566;27.820;2023-01-31T14:32:16;98470.38;;;0.23;100.00
9905;BME280;4991;43.566;27.820;2023-01-31T14:34:50;98474.34;;;0.21;100.00
9905;BME280;4991;43.566;27.820;2023-01-31T14:49:00;98494.94;;;0.20;100.00
9905;BME280;4991;43.566;27.820;2023-01-31T14:54:44;98504.03;;;0.19;100.00
9905;BME280;4991;43.566;27.820;2023-01-31T14:57:24;98513.41;;;0.17;100.00
9905;BME280;4991;43.566;27.820;2023-01-31T15:00:04;98518.75;;;0.17;100.00
9905;BME280;4991;43.566;27.820;2023-01-31T15:05:04;98521.09;;;0.13;100.00
9905;BME280;4991;43.566;27.820;2023-01-31T15:07:30;98528.31;;;0.13;100.00
9905;BME280;4991;43.566;27.820;2023-01-31T15:09:57;98526.69;;;0.12;100.00
9905;BME280;4991;43.566;27.820;2023-01-31T15:12:54;98528.47;;;0.06;100.00
9905;BME280;4991;43.566;27.820;2023-01-31T15:15:36;98527.97;;;0.09;100.00
9905;BME280;4991;43.566;27.820;2023-01-31T15:18:16;98545.09;;;0.08;100.00
9905;BME280;4991;43.566;27.820;2023-01-31T15:20:48;98539.19;;;0.06;100.00
9905;BME280;4991;43.566;27.820;2023-01-31T15:23:26;98546.13;;;0.07;100.00
9905;BME280;4991;43.566;27.820;2023-01-31T15:25:57;98546.47;;;0.11;100.00
9905;BME280;4991;43.566;27.820;2023-01-31T15:28:27;98556.28;;;0.05;100.00
9905;BME280;4991;43.566;27.820;2023-01-31T15:31:00;98558.25;;;0.10;100.00
9905;BME280;4991;43.566;27.820;2023-01-31T15:33:30;98565.69;;;0.08;100.00
9905;BME280;4991;43.566;27.820;2023-01-31T15:35:57;98571.47;;;0.16;100.00
9905;BME280;4991;43.566;27.820;2023-01-31T15:38:40;98567.06;;;0.10;100.00